Shanghai, Shanghai

11:56 CST le 19 décembre 2014 (GMT +0800)
eric | Change Station
CLOSE
Current Station
Stations météorologiques personnelles
Location: 上海, 上海市
Altitude: 23 ft
Stations météo à proximité

Alt. 23 ft 31.32 °N, 121.47 °E | Updated 3 seconds ago

Clear
Ciel dégagé
49.8 ° F
Paraît 50 ° F
N
0.0
Vent Variable Vent de SSE
Gusts 0.0 mph

Aujourd'hui
Haut(e) -- | Bas -- ° F
--% Risque de précip.
Hier
Haut(e) -- | Bas -- ° F
Precip. -- pouce
6:47 AM 4:54 PM
Lune descendante, 10% visible
Pression 30.30 pouce
Visibilité -9999.0 Miles terrestres
Nuages
Refroidissement éolien 50 ° F
Point de rosée 41 ° F
Humidité 72%
Précipitations 0.00 pouce
Profondeur de la couche neigeuse Non disponible.
UV 0.0 sur 12
Pollen Non disponible.
Qualité de l'air Non disponible.
Flu Activity Non disponible.
METAR ZSSS 190330Z 21002MPS 140V260 CAVOK 11/05 Q1026 NOSIG

More Conditions Fewer Conditions

Pression 30.30 pouce
Visibilité -9999.0 Miles terrestres
Nuages
Refroidissement éolien 50 ° F
Point de rosée 41 ° F
Humidité 72%
Précipitations 0.00 pouce
Profondeur de la couche neigeuse Non disponible.
UV 0.0 sur 12
Pollen Non disponible.
Qualité de l'air Non disponible.
Flu Activity Non disponible.
METAR ZSSS 190330Z 21002MPS 140V260 CAVOK 11/05 Q1026 NOSIG

More Conditions Fewer Conditions

10-Day Weather Forecast

Almanac

Astronomie

Dec. 19, 2014 Lever Coucher
Temps réel
Crépuscule civil
Crépuscule nautique
Crépuscule astronomique
Lune
Durée de lumière visible
Longueur du jour
Tomorrow will be .
, % of the Moon is Illuminated

Extrêmes aujourd'hui

Country Highs Country Lows

Community

WunderPhotos

Upload Photos

1,778,985 Photos téléchargées !

WunderBlogs® & News

Nearby

Qualité de l'air

  Qualité de l'air Indice de la qualité de l'air Polluant
Not available.

Épaisseur de neige

Station Depth Altitude

Activité sismique

Ville Distance Mag. Time & Date
Minimum magnitude displayed is 2.5.

Températures des eaux côtières

Lieu Température

Stations météo à proximité